sensor_id;sensor_type;location;lat;lon;timestamp;pressure;altitude;pressure_sealevel;temperature;humidity
35443;BME280;21561;55.654;37.592;2023-05-23T00:01:38;99709.66;;;12.38;100.00
35443;BME280;21561;55.654;37.592;2023-05-23T00:04:05;99708.84;;;12.33;100.00
35443;BME280;21561;55.654;37.592;2023-05-23T00:06:32;99707.19;;;12.29;100.00
35443;BME280;21561;55.654;37.592;2023-05-23T00:09:00;99706.38;;;12.24;100.00
35443;BME280;21561;55.654;37.592;2023-05-23T00:11:27;99711.59;;;12.21;100.00
35443;BME280;21561;55.654;37.592;2023-05-23T00:13:55;99717.69;;;12.18;100.00
35443;BME280;21561;55.654;37.592;2023-05-23T00:16:27;99719.53;;;12.13;100.00
35443;BME280;21561;55.654;37.592;2023-05-23T00:18:54;99712.59;;;12.09;100.00
35443;BME280;21561;55.654;37.592;2023-05-23T00:21:23;99715.22;;;12.08;100.00
35443;BME280;21561;55.654;37.592;2023-05-23T00:23:50;99718.75;;;12.03;100.00
35443;BME280;21561;55.654;37.592;2023-05-23T00:26:16;99712.75;;;11.98;100.00
35443;BME280;21561;55.654;37.592;2023-05-23T00:28:43;99713.66;;;11.94;100.00
35443;BME280;21561;55.654;37.592;2023-05-23T00:31:10;99712.00;;;11.90;100.00
35443;BME280;21561;55.654;37.592;2023-05-23T00:33:37;99716.31;;;11.88;100.00
35443;BME280;21561;55.654;37.592;2023-05-23T00:36:04;99716.34;;;11.83;100.00
35443;BME280;21561;55.654;37.592;2023-05-23T00:38:31;99712.06;;;11.81;100.00
35443;BME280;21561;55.654;37.592;2023-05-23T00:40:58;99712.06;;;11.79;100.00
35443;BME280;21561;55.654;37.592;2023-05-23T00:43:25;99713.84;;;11.76;100.00
35443;BME280;21561;55.654;37.592;2023-05-23T00:45:52;99702.63;;;11.71;100.00
35443;BME280;21561;55.654;37.592;2023-05-23T00:48:19;99706.09;;;11.68;100.00
35443;BME280;21561;55.654;37.592;2023-05-23T00:50:46;99703.56;;;11.67;100.00
35443;BME280;21561;55.654;37.592;2023-05-23T00:53:13;99715.72;;;11.63;100.00
35443;BME280;21561;55.654;37.592;2023-05-23T00:55:40;99710.56;;;11.58;100.00
35443;BME280;21561;55.654;37.592;2023-05-23T00:58:08;99710.56;;;11.55;100.00
35443;BME280;21561;55.654;37.592;2023-05-23T01:00:35;99703.69;;;11.51;100.00
35443;BME280;21561;55.654;37.592;2023-05-23T01:03:04;99701.13;;;11.48;100.00
35443;BME280;21561;55.654;37.592;2023-05-23T01:05:31;99702.88;;;11.46;100.00
35443;BME280;21561;55.654;37.592;2023-05-23T01:07:58;99703.78;;;11.45;100.00
35443;BME280;21561;55.654;37.592;2023-05-23T01:10:28;99714.16;;;11.45;100.00
35443;BME280;21561;55.654;37.592;2023-05-23T01:13:16;99701.09;;;11.53;100.00
35443;BME280;21561;55.654;37.592;2023-05-23T01:16:16;99707.13;;;11.53;100.00
35443;BME280;21561;55.654;37.592;2023-05-23T01:18:53;99696.81;;;11.47;100.00
35443;BME280;21561;55.654;37.592;2023-05-23T01:21:24;99694.25;;;11.41;100.00
35443;BME280;21561;55.654;37.592;2023-05-23T01:29:46;99692.50;;;11.43;100.00
35443;BME280;21561;55.654;37.592;2023-05-23T01:32:18;99696.88;;;11.41;100.00
35443;BME280;21561;55.654;37.592;2023-05-23T01:34:54;99700.31;;;11.43;100.00
35443;BME280;21561;55.654;37.592;2023-05-23T01:37:21;99699.47;;;11.39;100.00
35443;BME280;21561;55.654;37.592;2023-05-23T01:39:48;99696.00;;;11.40;100.00
35443;BME280;21561;55.654;37.592;2023-05-23T01:42:15;99699.47;;;11.41;100.00
35443;BME280;21561;55.654;37.592;2023-05-23T01:44:44;99693.38;;;11.45;100.00
35443;BME280;21561;55.654;37.592;2023-05-23T01:47:12;99690.75;;;11.46;100.00
35443;BME280;21561;55.654;37.592;2023-05-23T01:49:40;99689.88;;;11.46;100.00
35443;BME280;21561;55.654;37.592;2023-05-23T01:52:10;99690.75;;;11.46;100.00
35443;BME280;21561;55.654;37.592;2023-05-23T01:54:39;99695.09;;;11.46;100.00
35443;BME280;21561;55.654;37.592;2023-05-23T01:57:08;99694.22;;;11.45;100.00
35443;BME280;21561;55.654;37.592;2023-05-23T01:59:36;99684.69;;;11.46;100.00
35443;BME280;21561;55.654;37.592;2023-05-23T02:02:04;99688.13;;;11.48;100.00
35443;BME280;21561;55.654;37.592;2023-05-23T02:04:31;99686.38;;;11.50;100.00
35443;BME280;21561;55.654;37.592;2023-05-23T02:06:58;99676.81;;;11.54;100.00
35443;BME280;21561;55.654;37.592;2023-05-23T02:09:25;99682.88;;;11.56;100.00
35443;BME280;21561;55.654;37.592;2023-05-23T02:11:52;99681.09;;;11.59;100.00
35443;BME280;21561;55.654;37.592;2023-05-23T02:14:19;99687.09;;;11.64;100.00
35443;BME280;21561;55.654;37.592;2023-05-23T02:16:46;99696.63;;;11.65;100.00
35443;BME280;21561;55.654;37.592;2023-05-23T02:19:13;99681.03;;;11.65;100.00
35443;BME280;21561;55.654;37.592;2023-05-23T02:21:40;99671.44;;;11.71;100.00
35443;BME280;21561;55.654;37.592;2023-05-23T02:24:07;99666.16;;;11.77;100.00
35443;BME280;21561;55.654;37.592;2023-05-23T02:26:34;99666.97;;;11.82;100.00
35443;BME280;21561;55.654;37.592;2023-05-23T02:29:00;99675.59;;;11.84;100.00
35443;BME280;21561;55.654;37.592;2023-05-23T02:31:27;99674.72;;;11.88;100.00
35443;BME280;21561;55.654;37.592;2023-05-23T02:33:54;99669.47;;;11.90;100.00
35443;BME280;21561;55.654;37.592;2023-05-23T02:36:21;99680.78;;;11.90;100.00
35443;BME280;21561;55.654;37.592;2023-05-23T02:38:48;99675.59;;;11.90;100.00
35443;BME280;21561;55.654;37.592;2023-05-23T02:41:15;99677.28;;;11.91;100.00
35443;BME280;21561;55.654;37.592;2023-05-23T02:43:45;99675.53;;;11.93;100.00
35443;BME280;21561;55.654;37.592;2023-05-23T02:46:12;99672.06;;;11.94;100.00
35443;BME280;21561;55.654;37.592;2023-05-23T02:48:39;99671.97;;;12.00;100.00
35443;BME280;21561;55.654;37.592;2023-05-23T02:51:06;99673.63;;;12.08;100.00
35443;BME280;21561;55.654;37.592;2023-05-23T02:53:33;99685.66;;;12.15;100.00
35443;BME280;21561;55.654;37.592;2023-05-23T02:56:00;99681.25;;;12.20;100.00
35443;BME280;21561;55.654;37.592;2023-05-23T02:58:27;99687.25;;;12.25;100.00
35443;BME280;21561;55.654;37.592;2023-05-23T03:00:53;99694.09;;;12.32;100.00
35443;BME280;21561;55.654;37.592;2023-05-23T03:03:20;99692.31;;;12.36;100.00
35443;BME280;21561;55.654;37.592;2023-05-23T03:05:47;99692.28;;;12.40;100.00
35443;BME280;21561;55.654;37.592;2023-05-23T03:08:14;99687.81;;;12.49;99.44
35443;BME280;21561;55.654;37.592;2023-05-23T03:10:41;99689.34;;;12.64;97.55
35443;BME280;21561;55.654;37.592;2023-05-23T03:13:08;99676.09;;;12.77;96.65
35443;BME280;21561;55.654;37.592;2023-05-23T03:15:35;99686.28;;;12.93;93.62
35443;BME280;21561;55.654;37.592;2023-05-23T03:18:02;99678.19;;;13.10;91.73
35443;BME280;21561;55.654;37.592;2023-05-23T03:20:32;99679.69;;;13.25;90.64
35443;BME280;21561;55.654;37.592;2023-05-23T03:22:59;99684.63;;;13.40;89.25
35443;BME280;21561;55.654;37.592;2023-05-23T03:25:26;99676.59;;;13.52;86.51
35443;BME280;21561;55.654;37.592;2023-05-23T03:27:53;99672.88;;;13.66;86.08
35443;BME280;21561;55.654;37.592;2023-05-23T03:30:20;99672.56;;;13.81;83.37
35443;BME280;21561;55.654;37.592;2023-05-23T03:32:47;99656.66;;;13.93;82.31
35443;BME280;21561;55.654;37.592;2023-05-23T03:35:14;99664.22;;;14.07;81.02
35443;BME280;21561;55.654;37.592;2023-05-23T03:37:41;99665.69;;;14.19;82.78
35443;BME280;21561;55.654;37.592;2023-05-23T03:40:08;99669.03;;;14.26;82.66
35443;BME280;21561;55.654;37.592;2023-05-23T03:42:37;99664.47;;;14.36;80.17
35443;BME280;21561;55.654;37.592;2023-05-23T03:45:05;99668.59;;;14.46;79.38
35443;BME280;21561;55.654;37.592;2023-05-23T03:47:32;99661.38;;;14.57;79.23
35443;BME280;21561;55.654;37.592;2023-05-23T03:49:59;99668.94;;;14.69;78.50
35443;BME280;21561;55.654;37.592;2023-05-23T03:52:26;99670.50;;;14.77;78.19
35443;BME280;21561;55.654;37.592;2023-05-23T03:54:53;99665.16;;;14.83;78.71
35443;BME280;21561;55.654;37.592;2023-05-23T03:57:20;99655.44;;;14.88;77.72
35443;BME280;21561;55.654;37.592;2023-05-23T03:59:47;99657.97;;;14.91;76.74
35443;BME280;21561;55.654;37.592;2023-05-23T04:02:14;99652.63;;;14.96;76.90
35443;BME280;21561;55.654;37.592;2023-05-23T04:04:40;99653.41;;;14.99;76.29
35443;BME280;21561;55.654;37.592;2023-05-23T04:07:07;99660.22;;;15.06;76.70
35443;BME280;21561;55.654;37.592;2023-05-23T04:09:35;99664.44;;;15.11;76.74
35443;BME280;21561;55.654;37.592;2023-05-23T04:12:02;99667.88;;;15.13;76.19
35443;BME280;21561;55.654;37.592;2023-05-23T04:14:29;99673.88;;;15.16;76.97
35443;BME280;21561;55.654;37.592;2023-05-23T04:16:59;99669.44;;;15.20;76.12
35443;BME280;21561;55.654;37.592;2023-05-23T04:19:26;99667.56;;;15.25;75.89
35443;BME280;21561;55.654;37.592;2023-05-23T04:21:53;99669.16;;;15.31;74.97
35443;BME280;21561;55.654;37.592;2023-05-23T04:24:20;99662.97;;;15.35;75.08
35443;BME280;21561;55.654;37.592;2023-05-23T04:26:47;99666.41;;;15.37;75.34
35443;BME280;21561;55.654;37.592;2023-05-23T04:29:14;99664.53;;;15.42;75.16
35443;BME280;21561;55.654;37.592;2023-05-23T04:31:40;99662.66;;;15.47;73.73
35443;BME280;21561;55.654;37.592;2023-05-23T04:34:07;99662.50;;;15.52;73.50
35443;BME280;21561;55.654;37.592;2023-05-23T04:36:35;99658.00;;;15.57;72.98
35443;BME280;21561;55.654;37.592;2023-05-23T04:39:06;99666.53;;;15.65;73.83
35443;BME280;21561;55.654;37.592;2023-05-23T04:41:33;99665.56;;;15.68;72.12
35443;BME280;21561;55.654;37.592;2023-05-23T04:44:02;99661.97;;;15.72;71.52
35443;BME280;21561;55.654;37.592;2023-05-23T04:46:29;99652.28;;;15.75;71.28
35443;BME280;21561;55.654;37.592;2023-05-23T04:48:55;99657.44;;;15.78;70.65
35443;BME280;21561;55.654;37.592;2023-05-23T04:51:24;99659.00;;;15.86;70.64
35443;BME280;21561;55.654;37.592;2023-05-23T04:53:51;99658.91;;;15.89;69.75
35443;BME280;21561;55.654;37.592;2023-05-23T04:56:18;99658.84;;;15.92;69.89
35443;BME280;21561;55.654;37.592;2023-05-23T04:58:48;99652.63;;;15.94;69.86
35443;BME280;21561;55.654;37.592;2023-05-23T05:01:14;99646.44;;;15.97;69.61
35443;BME280;21561;55.654;37.592;2023-05-23T05:03:41;99651.69;;;15.97;69.03
35443;BME280;21561;55.654;37.592;2023-05-23T05:06:08;99655.13;;;15.99;70.29
35443;BME280;21561;55.654;37.592;2023-05-23T05:08:35;99655.22;;;15.96;69.50
35443;BME280;21561;55.654;37.592;2023-05-23T05:11:02;99686.44;;;16.02;70.18
35443;BME280;21561;55.654;37.592;2023-05-23T05:13:29;99677.34;;;16.15;69.62
35443;BME280;21561;55.654;37.592;2023-05-23T05:15:56;99675.31;;;16.23;69.64
35443;BME280;21561;55.654;37.592;2023-05-23T05:18:22;99687.25;;;16.34;70.00
35443;BME280;21561;55.654;37.592;2023-05-23T05:20:49;99688.78;;;16.41;69.44
35443;BME280;21561;55.654;37.592;2023-05-23T05:23:16;99681.81;;;16.40;69.87
35443;BME280;21561;55.654;37.592;2023-05-23T05:25:43;99675.81;;;16.36;69.24
35443;BME280;21561;55.654;37.592;2023-05-23T05:28:10;99679.53;;;16.29;69.80
35443;BME280;21561;55.654;37.592;2023-05-23T05:30:37;99683.19;;;16.23;69.93
35443;BME280;21561;55.654;37.592;2023-05-23T05:33:04;99682.56;;;16.15;70.05
35443;BME280;21561;55.654;37.592;2023-05-23T05:35:33;99692.09;;;16.18;70.48
35443;BME280;21561;55.654;37.592;2023-05-23T05:38:00;99683.34;;;16.19;71.05
35443;BME280;21561;55.654;37.592;2023-05-23T05:40:33;99681.47;;;16.22;70.59
35443;BME280;21561;55.654;37.592;2023-05-23T05:43:00;99677.34;;;16.15;70.48
35443;BME280;21561;55.654;37.592;2023-05-23T05:45:27;99677.34;;;16.15;71.14
35443;BME280;21561;55.654;37.592;2023-05-23T05:47:53;99679.75;;;16.21;70.82
35443;BME280;21561;55.654;37.592;2023-05-23T05:50:20;99674.47;;;16.23;70.31
35443;BME280;21561;55.654;37.592;2023-05-23T05:52:47;99672.75;;;16.22;70.44
35443;BME280;21561;55.654;37.592;2023-05-23T05:55:14;99673.50;;;16.26;70.01
35443;BME280;21561;55.654;37.592;2023-05-23T05:57:41;99680.47;;;16.27;70.62
35443;BME280;21561;55.654;37.592;2023-05-23T06:00:09;99676.84;;;16.31;70.91
35443;BME280;21561;55.654;37.592;2023-05-23T06:02:38;99681.03;;;16.36;70.74
35443;BME280;21561;55.654;37.592;2023-05-23T06:05:06;99667.81;;;16.41;70.37
35443;BME280;21561;55.654;37.592;2023-05-23T06:07:33;99673.50;;;16.55;70.35
35443;BME280;21561;55.654;37.592;2023-05-23T06:10:01;99671.22;;;16.73;69.73
35443;BME280;21561;55.654;37.592;2023-05-23T06:12:29;99668.09;;;16.88;69.25
35443;BME280;21561;55.654;37.592;2023-05-23T06:14:56;99665.03;;;17.02;68.53
35443;BME280;21561;55.654;37.592;2023-05-23T06:17:22;99663.78;;;17.14;67.93
35443;BME280;21561;55.654;37.592;2023-05-23T06:19:49;99670.41;;;17.24;68.05
35443;BME280;21561;55.654;37.592;2023-05-23T06:22:17;99664.91;;;17.32;67.78
35443;BME280;21561;55.654;37.592;2023-05-23T06:24:44;99650.59;;;17.41;67.48
35443;BME280;21561;55.654;37.592;2023-05-23T06:27:12;99646.84;;;17.48;66.50
35443;BME280;21561;55.654;37.592;2023-05-23T06:29:39;99644.72;;;17.59;66.25
35443;BME280;21561;55.654;37.592;2023-05-23T06:32:06;99646.13;;;17.69;65.76
35443;BME280;21561;55.654;37.592;2023-05-23T06:34:33;99643.34;;;17.72;65.91
35443;BME280;21561;55.654;37.592;2023-05-23T06:37:00;99632.84;;;17.72;65.92
35443;BME280;21561;55.654;37.592;2023-05-23T06:39:26;99631.97;;;17.73;65.49
35443;BME280;21561;55.654;37.592;2023-05-23T06:41:53;99628.41;;;17.74;65.74
35443;BME280;21561;55.654;37.592;2023-05-23T06:44:20;99623.16;;;17.74;65.62
35443;BME280;21561;55.654;37.592;2023-05-23T06:46:53;99624.78;;;17.79;65.88
35443;BME280;21561;55.654;37.592;2023-05-23T06:49:40;99618.13;;;17.93;65.67
35443;BME280;21561;55.654;37.592;2023-05-23T06:52:08;99620.34;;;18.04;65.52
35443;BME280;21561;55.654;37.592;2023-05-23T06:54:35;99618.13;;;18.16;65.54
35443;BME280;21561;55.654;37.592;2023-05-23T06:57:02;99621.34;;;18.24;64.77
35443;BME280;21561;55.654;37.592;2023-05-23T06:59:29;99621.09;;;18.30;63.80
35443;BME280;21561;55.654;37.592;2023-05-23T07:01:56;99613.81;;;18.37;63.88
35443;BME280;21561;55.654;37.592;2023-05-23T07:04:23;99608.25;;;18.44;63.68
35443;BME280;21561;55.654;37.592;2023-05-23T07:06:49;99598.19;;;18.56;63.72
35443;BME280;21561;55.654;37.592;2023-05-23T07:09:18;99598.72;;;18.64;64.00
35443;BME280;21561;55.654;37.592;2023-05-23T07:11:45;99601.91;;;18.72;63.93
35443;BME280;21561;55.654;37.592;2023-05-23T07:14:12;99591.22;;;18.75;63.27
35443;BME280;21561;55.654;37.592;2023-05-23T07:16:38;99598.84;;;18.83;63.67
35443;BME280;21561;55.654;37.592;2023-05-23T07:19:05;99591.34;;;18.94;62.84
35443;BME280;21561;55.654;37.592;2023-05-23T07:21:32;99600.88;;;18.97;62.20
35443;BME280;21561;55.654;37.592;2023-05-23T07:23:59;99593.94;;;18.96;61.81
35443;BME280;21561;55.654;37.592;2023-05-23T07:26:26;99599.19;;;18.96;61.97
35443;BME280;21561;55.654;37.592;2023-05-23T07:28:53;99596.94;;;19.07;61.95
35443;BME280;21561;55.654;37.592;2023-05-23T07:31:20;99591.03;;;19.22;61.17
35443;BME280;21561;55.654;37.592;2023-05-23T07:33:47;99599.28;;;19.34;61.12
35443;BME280;21561;55.654;37.592;2023-05-23T07:36:14;99593.63;;;19.43;60.29
35443;BME280;21561;55.654;37.592;2023-05-23T07:38:41;99600.47;;;19.47;60.72
35443;BME280;21561;55.654;37.592;2023-05-23T07:41:08;99600.31;;;19.50;60.11
35443;BME280;21561;55.654;37.592;2023-05-23T07:43:38;99595.34;;;19.63;60.39
35443;BME280;21561;55.654;37.592;2023-05-23T07:46:05;99606.06;;;19.79;60.91
35443;BME280;21561;55.654;37.592;2023-05-23T07:48:32;99595.69;;;19.95;60.51
35443;BME280;21561;55.654;37.592;2023-05-23T07:50:59;99605.53;;;20.10;59.74
35443;BME280;21561;55.654;37.592;2023-05-23T07:53:26;99597.88;;;20.23;59.54
35443;BME280;21561;55.654;37.592;2023-05-23T07:55:53;99602.56;;;20.35;59.50
35443;BME280;21561;55.654;37.592;2023-05-23T07:58:20;99606.97;;;20.35;58.77
35443;BME280;21561;55.654;37.592;2023-05-23T08:00:47;99603.78;;;20.28;58.57
35443;BME280;21561;55.654;37.592;2023-05-23T08:03:17;99607.97;;;20.32;58.60
35443;BME280;21561;55.654;37.592;2023-05-23T08:05:45;99616.28;;;20.42;58.34
35443;BME280;21561;55.654;37.592;2023-05-23T08:08:12;99613.31;;;20.50;59.07
35443;BME280;21561;55.654;37.592;2023-05-23T08:10:39;99605.78;;;20.59;58.76
35443;BME280;21561;55.654;37.592;2023-05-23T08:13:10;99607.84;;;20.72;58.42
35443;BME280;21561;55.654;37.592;2023-05-23T08:15:37;99611.69;;;20.84;58.47
35443;BME280;21561;55.654;37.592;2023-05-23T08:18:04;99602.06;;;21.00;57.79
35443;BME280;21561;55.654;37.592;2023-05-23T08:20:31;99594.59;;;21.08;56.67
35443;BME280;21561;55.654;37.592;2023-05-23T08:22:59;99595.53;;;21.07;56.79
35443;BME280;21561;55.654;37.592;2023-05-23T08:25:27;99606.94;;;21.08;57.08
35443;BME280;21561;55.654;37.592;2023-05-23T08:27:58;99591.66;;;21.14;56.33
35443;BME280;21561;55.654;37.592;2023-05-23T08:30:26;99598.06;;;21.26;57.00
35443;BME280;21561;55.654;37.592;2023-05-23T08:32:55;99595.97;;;21.33;56.34
35443;BME280;21561;55.654;37.592;2023-05-23T08:35:22;99592.41;;;21.34;56.27
35443;BME280;21561;55.654;37.592;2023-05-23T08:37:50;99584.28;;;21.37;55.82
35443;BME280;21561;55.654;37.592;2023-05-23T08:40:22;99595.28;;;21.47;56.14
35443;BME280;21561;55.654;37.592;2023-05-23T08:42:50;99583.16;;;21.43;55.96
35443;BME280;21561;55.654;37.592;2023-05-23T08:45:17;99579.16;;;21.51;56.29
35443;BME280;21561;55.654;37.592;2023-05-23T08:47:45;99591.44;;;21.52;56.10
35443;BME280;21561;55.654;37.592;2023-05-23T08:50:14;99597.66;;;21.51;56.52
35443;BME280;21561;55.654;37.592;2023-05-23T08:52:47;99590.69;;;21.50;56.97
35443;BME280;21561;55.654;37.592;2023-05-23T08:55:16;99601.50;;;21.44;56.58
35443;BME280;21561;55.654;37.592;2023-05-23T08:57:43;99603.72;;;21.36;57.16
35443;BME280;21561;55.654;37.592;2023-05-23T09:00:11;99603.88;;;21.33;57.11
35443;BME280;21561;55.654;37.592;2023-05-23T09:02:44;99614.28;;;21.36;57.65
35443;BME280;21561;55.654;37.592;2023-05-23T09:05:12;99612.75;;;21.32;58.00
35443;BME280;21561;55.654;37.592;2023-05-23T09:07:40;99612.41;;;21.38;58.14
35443;BME280;21561;55.654;37.592;2023-05-23T09:10:08;99612.56;;;21.35;58.37
35443;BME280;21561;55.654;37.592;2023-05-23T09:12:36;99624.22;;;21.31;59.03
35443;BME280;21561;55.654;37.592;2023-05-23T09:15:06;99639.91;;;21.34;60.82
35443;BME280;21561;55.654;37.592;2023-05-23T09:17:35;99630.41;;;21.30;60.64
35443;BME280;21561;55.654;37.592;2023-05-23T09:20:10;99630.13;;;21.36;61.13
35443;BME280;21561;55.654;37.592;2023-05-23T09:22:39;99635.19;;;21.06;61.76
35443;BME280;21561;55.654;37.592;2023-05-23T09:25:06;99638.50;;;21.09;62.09
35443;BME280;21561;55.654;37.592;2023-05-23T09:27:34;99635.94;;;21.08;62.19
35443;BME280;21561;55.654;37.592;2023-05-23T09:30:05;99646.09;;;21.15;62.90
35443;BME280;21561;55.654;37.592;2023-05-23T09:32:58;99636.56;;;21.30;63.05
35443;BME280;21561;55.654;37.592;2023-05-23T09:35:30;99643.00;;;20.90;62.93
35443;BME280;21561;55.654;37.592;2023-05-23T09:37:57;99646.34;;;20.57;63.50
35443;BME280;21561;55.654;37.592;2023-05-23T09:40:30;99651.75;;;20.35;65.26
35443;BME280;21561;55.654;37.592;2023-05-23T09:43:03;99644.66;;;20.18;65.43
35443;BME280;21561;55.654;37.592;2023-05-23T09:45:31;99655.69;;;19.88;67.12
35443;BME280;21561;55.654;37.592;2023-05-23T09:47:58;99652.00;;;19.72;69.14
35443;BME280;21561;55.654;37.592;2023-05-23T09:50:30;99652.22;;;19.67;70.53
35443;BME280;21561;55.654;37.592;2023-05-23T09:53:00;99647.25;;;19.40;71.02
35443;BME280;21561;55.654;37.592;2023-05-23T09:55:26;99653.44;;;19.19;72.30
35443;BME280;21561;55.654;37.592;2023-05-23T09:57:54;99647.84;;;19.06;73.31
35443;BME280;21561;55.654;37.592;2023-05-23T10:00:24;99647.97;;;19.03;73.61
35443;BME280;21561;55.654;37.592;2023-05-23T10:03:09;99650.38;;;19.07;74.56
35443;BME280;21561;55.654;37.592;2023-05-23T10:05:49;99652.00;;;18.89;75.56
35443;BME280;21561;55.654;37.592;2023-05-23T10:13:26;99649.31;;;18.69;79.13
35443;BME280;21561;55.654;37.592;2023-05-23T10:19:06;99646.00;;;18.64;80.24
35443;BME280;21561;55.654;37.592;2023-05-23T10:21:41;99647.19;;;18.57;79.83
35443;BME280;21561;55.654;37.592;2023-05-23T10:24:13;99650.13;;;18.27;80.18
35443;BME280;21561;55.654;37.592;2023-05-23T10:26:42;99651.38;;;18.17;82.36
35443;BME280;21561;55.654;37.592;2023-05-23T10:29:09;99647.31;;;18.08;82.95
35443;BME280;21561;55.654;37.592;2023-05-23T10:31:37;99652.88;;;18.00;82.94
35443;BME280;21561;55.654;37.592;2023-05-23T10:36:54;99656.97;;;17.84;83.55
35443;BME280;21561;55.654;37.592;2023-05-23T10:39:45;99661.31;;;17.83;85.23
35443;BME280;21561;55.654;37.592;2023-05-23T10:42:26;99659.91;;;17.74;86.38
35443;BME280;21561;55.654;37.592;2023-05-23T10:45:15;99658.31;;;17.70;87.52
35443;BME280;21561;55.654;37.592;2023-05-23T10:47:42;99655.75;;;17.44;89.17
35443;BME280;21561;55.654;37.592;2023-05-23T10:50:22;99669.88;;;17.40;90.54
35443;BME280;21561;55.654;37.592;2023-05-23T10:52:56;99666.97;;;17.22;91.77
35443;BME280;21561;55.654;37.592;2023-05-23T10:55:23;99660.22;;;17.15;92.04
35443;BME280;21561;55.654;37.592;2023-05-23T10:58:17;99666.13;;;17.22;91.81
35443;BME280;21561;55.654;37.592;2023-05-23T11:06:37;99661.25;;;16.84;97.44
35443;BME280;21561;55.654;37.592;2023-05-23T11:09:24;99668.38;;;16.79;99.15
35443;BME280;21561;55.654;37.592;2023-05-23T11:19:39;99646.66;;;16.47;100.00
35443;BME280;21561;55.654;37.592;2023-05-23T11:22:08;99661.59;;;16.45;100.00
35443;BME280;21561;55.654;37.592;2023-05-23T11:32:34;99669.72;;;16.36;100.00
35443;BME280;21561;55.654;37.592;2023-05-23T11:35:05;99669.63;;;16.39;100.00
35443;BME280;21561;55.654;37.592;2023-05-23T11:37:33;99669.94;;;16.30;100.00
35443;BME280;21561;55.654;37.592;2023-05-23T11:42:53;99673.44;;;16.29;100.00
35443;BME280;21561;55.654;37.592;2023-05-23T11:45:21;99671.66;;;16.29;100.00
35443;BME280;21561;55.654;37.592;2023-05-23T11:47:48;99661.06;;;16.34;100.00
35443;BME280;21561;55.654;37.592;2023-05-23T11:50:15;99655.75;;;16.37;100.00
35443;BME280;21561;55.654;37.592;2023-05-23T11:52:42;99653.72;;;16.45;100.00
35443;BME280;21561;55.654;37.592;2023-05-23T11:55:10;99652.53;;;16.55;100.00
35443;BME280;21561;55.654;37.592;2023-05-23T11:57:39;99651.22;;;16.69;100.00
35443;BME280;21561;55.654;37.592;2023-05-23T12:00:07;99659.72;;;16.77;100.00
35443;BME280;21561;55.654;37.592;2023-05-23T12:02:38;99653.31;;;16.87;100.00
35443;BME280;21561;55.654;37.592;2023-05-23T12:05:10;99645.13;;;16.96;100.00
35443;BME280;21561;55.654;37.592;2023-05-23T12:07:44;99645.53;;;17.11;100.00
35443;BME280;21561;55.654;37.592;2023-05-23T12:10:16;99636.31;;;17.24;100.00
35443;BME280;21561;55.654;37.592;2023-05-23T12:12:45;99636.88;;;17.34;99.47
35443;BME280;21561;55.654;37.592;2023-05-23T12:15:12;99637.25;;;17.48;99.32
35443;BME280;21561;55.654;37.592;2023-05-23T12:17:43;99633.78;;;17.71;98.31
35443;BME280;21561;55.654;37.592;2023-05-23T12:20:13;99621.13;;;17.83;96.88
35443;BME280;21561;55.654;37.592;2023-05-23T12:22:41;99629.72;;;17.88;96.31
35443;BME280;21561;55.654;37.592;2023-05-23T12:25:08;99621.63;;;17.92;95.46
35443;BME280;21561;55.654;37.592;2023-05-23T12:27:40;99620.59;;;17.98;95.05
35443;BME280;21561;55.654;37.592;2023-05-23T12:30:13;99619.28;;;18.08;94.70
35443;BME280;21561;55.654;37.592;2023-05-23T12:32:43;99619.97;;;18.13;93.85
35443;BME280;21561;55.654;37.592;2023-05-23T12:35:13;99610.94;;;18.21;92.78
35443;BME280;21561;55.654;37.592;2023-05-23T12:37:44;99610.72;;;18.27;92.92
35443;BME280;21561;55.654;37.592;2023-05-23T12:40:16;99607.72;;;18.36;93.25
35443;BME280;21561;55.654;37.592;2023-05-23T12:42:49;99613.66;;;18.41;91.39
35443;BME280;21561;55.654;37.592;2023-05-23T12:45:33;99597.63;;;18.47;91.12
35443;BME280;21561;55.654;37.592;2023-05-23T12:48:04;99595.00;;;18.47;91.42
35443;BME280;21561;55.654;37.592;2023-05-23T12:50:32;99595.31;;;18.40;90.48
35443;BME280;21561;55.654;37.592;2023-05-23T12:52:58;99591.66;;;18.44;90.68
35443;BME280;21561;55.654;37.592;2023-05-23T12:55:25;99584.56;;;18.46;89.77
35443;BME280;21561;55.654;37.592;2023-05-23T12:57:53;99591.47;;;18.48;89.20
35443;BME280;21561;55.654;37.592;2023-05-23T13:00:20;99593.94;;;18.51;89.42
35443;BME280;21561;55.654;37.592;2023-05-23T13:02:47;99589.94;;;18.65;88.10
35443;BME280;21561;55.654;37.592;2023-05-23T13:05:14;99584.00;;;18.80;87.18
35443;BME280;21561;55.654;37.592;2023-05-23T13:07:41;99581.16;;;19.07;85.45
35443;BME280;21561;55.654;37.592;2023-05-23T13:10:09;99579.63;;;19.22;84.39
35443;BME280;21561;55.654;37.592;2023-05-23T13:12:36;99571.59;;;19.45;82.31
35443;BME280;21561;55.654;37.592;2023-05-23T13:15:04;99574.22;;;19.85;80.50
35443;BME280;21561;55.654;37.592;2023-05-23T13:17:32;99574.75;;;20.11;78.97
35443;BME280;21561;55.654;37.592;2023-05-23T13:19:59;99578.88;;;20.16;78.17
35443;BME280;21561;55.654;37.592;2023-05-23T13:22:27;99578.03;;;20.16;78.80
35443;BME280;21561;55.654;37.592;2023-05-23T13:24:54;99578.81;;;20.18;78.92
35443;BME280;21561;55.654;37.592;2023-05-23T13:27:21;99580.81;;;20.13;79.76
35443;BME280;21561;55.654;37.592;2023-05-23T13:29:48;99586.22;;;20.10;79.88
35443;BME280;21561;55.654;37.592;2023-05-23T13:32:15;99587.44;;;20.02;79.01
35443;BME280;21561;55.654;37.592;2023-05-23T13:34:42;99588.63;;;19.95;78.68
35443;BME280;21561;55.654;37.592;2023-05-23T13:37:08;99591.78;;;19.84;78.29